Time;durP1;ratioP1;P1;durP2;ratioP2;P2;SDS_P1;SDS_P2;PMS_P1;PMS_P2;Temp;Humidity;BMP_temperature;BMP_pressure;BME280_temperature;BME280_humidity;BME280_pressure;Samples;Min_cycle;Max_cycle;Signal;HPM_P1;HPM_P2
2023/10/03 00:01:01;;;;;;;50.65;25.25;;;;;;;;;;5033351;28;20064;-62
2023/10/03 00:03:28;;;;;;;48.65;25.20;;;;;;;;;;5033091;28;20494;-62
2023/10/03 00:05:54;;;;;;;44.58;25.10;;;;;;;;;;5032406;28;20041;-62
2023/10/03 00:08:22;;;;;;;50.97;26.02;;;;;;;;;;5033044;28;20546;-62
2023/10/03 00:10:49;;;;;;;50.53;26.38;;;;;;;;;;5033024;28;20037;-62
2023/10/03 00:13:17;;;;;;;49.83;25.77;;;;;;;;;;5032691;28;20088;-62
2023/10/03 00:15:44;;;;;;;49.70;25.95;;;;;;;;;;5032780;28;20128;-62
2023/10/03 00:18:11;;;;;;;52.40;25.67;;;;;;;;;;5049543;28;20080;-62
2023/10/03 00:20:37;;;;;;;55.15;26.23;;;;;;;;;;5052513;28;20476;-62
2023/10/03 00:23:04;;;;;;;55.15;26.05;;;;;;;;;;5052553;28;20045;-62
2023/10/03 00:25:30;;;;;;;48.80;25.85;;;;;;;;;;5047164;28;20041;-62
2023/10/03 00:28:00;;;;;;;48.20;24.33;;;;;;;;;;5032372;28;20497;-62
2023/10/03 00:30:28;;;;;;;45.85;23.38;;;;;;;;;;5032719;28;20038;-62
2023/10/03 00:32:56;;;;;;;48.92;23.98;;;;;;;;;;5032697;28;20041;-62
2023/10/03 00:35:23;;;;;;;46.80;25.00;;;;;;;;;;5032129;28;20139;-62
2023/10/03 00:37:53;;;;;;;52.05;25.08;;;;;;;;;;5032546;28;20506;-62
2023/10/03 00:42:51;;;;;;;44.15;23.45;;;;;;;;;;5032027;28;20103;-62
2023/10/03 00:45:21;;;;;;;49.85;24.45;;;;;;;;;;5032424;28;20045;-62
2023/10/03 00:47:51;;;;;;;47.53;22.88;;;;;;;;;;5032377;28;20049;-62
2023/10/03 00:50:23;;;;;;;48.83;23.30;;;;;;;;;;5031870;28;20099;-62
2023/10/03 00:52:50;;;;;;;46.28;22.60;;;;;;;;;;5032312;28;20050;-62
2023/10/03 00:55:16;;;;;;;48.38;22.38;;;;;;;;;;5032002;28;20766;-62
2023/10/03 00:57:43;;;;;;;44.53;22.00;;;;;;;;;;5031751;28;20041;-62
2023/10/03 01:00:16;;;;;;;43.70;22.10;;;;;;;;;;5031683;28;20095;-62
2023/10/03 01:02:49;;;;;;;42.67;21.30;;;;;;;;;;5032077;28;20042;-62
2023/10/03 01:05:16;;;;;;;44.25;21.60;;;;;;;;;;5031595;28;20599;-62
2023/10/03 01:07:46;;;;;;;38.38;19.75;;;;;;;;;;5031764;28;20048;-62
2023/10/03 01:10:13;;;;;;;47.88;23.73;;;;;;;;;;5031999;28;20041;-62
2023/10/03 01:12:39;;;;;;;49.08;23.23;;;;;;;;;;5031263;28;20388;-62
2023/10/03 01:15:15;;;;;;;42.97;20.42;;;;;;;;;;5031640;28;20041;-62
2023/10/03 01:17:43;;;;;;;40.95;19.63;;;;;;;;;;5044440;28;20107;-62
2023/10/03 01:20:17;;;;;;;42.47;20.17;;;;;;;;;;5051012;28;20076;-62
2023/10/03 01:22:48;;;;;;;45.00;20.17;;;;;;;;;;5051512;28;20055;-62
2023/10/03 01:25:15;;;;;;;42.43;18.37;;;;;;;;;;5048390;28;20092;-62
2023/10/03 01:27:41;;;;;;;39.15;19.08;;;;;;;;;;5031137;28;20269;-62
2023/10/03 01:30:08;;;;;;;42.80;19.35;;;;;;;;;;5031630;28;20081;-62
2023/10/03 01:32:38;;;;;;;40.80;17.50;;;;;;;;;;5031631;28;20047;-62
2023/10/03 01:35:07;;;;;;;37.17;16.75;;;;;;;;;;5030785;28;20052;-62
2023/10/03 01:37:33;;;;;;;41.90;17.73;;;;;;;;;;5031360;28;20128;-62
2023/10/03 01:40:00;;;;;;;37.28;17.33;;;;;;;;;;5031306;28;20052;-62
2023/10/03 01:42:26;;;;;;;39.03;18.25;;;;;;;;;;5013056;28;20033;-62
2023/10/03 01:44:52;;;;;;;40.10;18.00;;;;;;;;;;5031320;28;20034;-62
2023/10/03 01:47:18;;;;;;;39.85;17.42;;;;;;;;;;5031278;28;20082;-62
2023/10/03 01:49:44;;;;;;;43.55;17.85;;;;;;;;;;5030967;28;20040;-62
2023/10/03 01:52:10;;;;;;;35.42;17.00;;;;;;;;;;5030926;28;20137;-62
2023/10/03 01:54:38;;;;;;;36.38;16.98;;;;;;;;;;5030749;28;20049;-62
2023/10/03 01:57:04;;;;;;;43.28;18.35;;;;;;;;;;5030888;28;20049;-62
2023/10/03 01:59:30;;;;;;;38.20;17.70;;;;;;;;;;5031306;28;20052;-62
2023/10/03 02:01:56;;;;;;;40.22;18.15;;;;;;;;;;5031097;28;20037;-62
2023/10/03 02:04:28;;;;;;;40.28;18.20;;;;;;;;;;5030060;28;20037;-62
2023/10/03 02:06:54;;;;;;;40.28;17.67;;;;;;;;;;5030749;28;20073;-62
2023/10/03 02:09:21;;;;;;;38.65;18.27;;;;;;;;;;5031150;28;20041;-62
2023/10/03 02:11:47;;;;;;;39.25;17.15;;;;;;;;;;5030661;28;20088;-62
2023/10/03 02:14:14;;;;;;;42.63;17.92;;;;;;;;;;5030996;28;20042;-62
2023/10/03 02:16:46;;;;;;;44.75;17.85;;;;;;;;;;5038017;28;20064;-62
2023/10/03 02:19:12;;;;;;;41.38;17.40;;;;;;;;;;5054632;28;20044;-62
2023/10/03 02:21:41;;;;;;;41.65;17.38;;;;;;;;;;5055046;28;20079;-62
2023/10/03 02:24:08;;;;;;;44.72;19.08;;;;;;;;;;5054813;28;20045;-62
2023/10/03 02:26:34;;;;;;;42.60;17.58;;;;;;;;;;5040347;28;20041;-62
2023/10/03 02:29:00;;;;;;;40.72;17.83;;;;;;;;;;5034548;28;20042;-62
2023/10/03 02:31:26;;;;;;;39.10;17.73;;;;;;;;;;5035031;28;20602;-62
2023/10/03 02:33:53;;;;;;;41.72;18.17;;;;;;;;;;5034443;28;20135;-62
2023/10/03 02:36:19;;;;;;;41.47;17.70;;;;;;;;;;5034676;28;20037;-62
2023/10/03 02:38:45;;;;;;;44.03;18.77;;;;;;;;;;5034765;28;20379;-62
2023/10/03 02:41:12;;;;;;;47.30;19.17;;;;;;;;;;5034203;28;20057;-62
2023/10/03 02:43:42;;;;;;;43.60;17.92;;;;;;;;;;5034422;28;20068;-62
2023/10/03 02:46:11;;;;;;;40.88;17.85;;;;;;;;;;5034264;28;20052;-62
2023/10/03 02:48:38;;;;;;;38.15;17.52;;;;;;;;;;5034254;28;20033;-62
2023/10/03 02:51:08;;;;;;;42.05;18.25;;;;;;;;;;5034240;28;20054;-62
2023/10/03 02:53:35;;;;;;;41.88;18.45;;;;;;;;;;5034362;28;20052;-62
2023/10/03 02:56:03;;;;;;;40.10;17.83;;;;;;;;;;5033849;28;20568;-62
2023/10/03 02:58:30;;;;;;;39.67;17.17;;;;;;;;;;5034364;28;20061;-62
2023/10/03 03:00:57;;;;;;;41.38;17.38;;;;;;;;;;5033934;28;20052;-62
2023/10/03 03:03:29;;;;;;;38.95;16.92;;;;;;;;;;5016157;28;20119;-62
2023/10/03 03:05:55;;;;;;;46.72;17.83;;;;;;;;;;5034325;28;20038;-62
2023/10/03 03:10:55;;;;;;;43.35;18.33;;;;;;;;;;5033911;28;20467;-62
2023/10/03 03:13:26;;;;;;;42.47;17.50;;;;;;;;;;5034105;28;20045;-62
2023/10/03 03:15:53;;;;;;;38.22;16.50;;;;;;;;;;5033910;28;20050;-62
2023/10/03 03:18:20;;;;;;;39.88;18.05;;;;;;;;;;5051508;28;20044;-62
2023/10/03 03:20:50;;;;;;;45.03;18.10;;;;;;;;;;5053715;28;20044;-62
2023/10/03 03:23:17;;;;;;;40.92;18.13;;;;;;;;;;5053577;28;20056;-62
2023/10/03 03:25:44;;;;;;;39.97;17.20;;;;;;;;;;5046238;28;20112;-62
2023/10/03 03:28:13;;;;;;;40.03;17.73;;;;;;;;;;5032760;28;20556;-62
2023/10/03 03:30:45;;;;;;;42.63;17.10;;;;;;;;;;5033926;28;20045;-62
2023/10/03 03:33:11;;;;;;;45.25;17.05;;;;;;;;;;5033448;28;20045;-62
2023/10/03 03:35:38;;;;;;;37.70;16.17;;;;;;;;;;5033609;28;20053;-62
2023/10/03 03:38:06;;;;;;;38.85;16.83;;;;;;;;;;5033596;28;20044;-62
2023/10/03 03:40:34;;;;;;;39.25;17.25;;;;;;;;;;5032926;28;20045;-62
2023/10/03 03:43:01;;;;;;;38.90;16.25;;;;;;;;;;5033527;28;20076;-62
2023/10/03 03:45:27;;;;;;;36.58;15.98;;;;;;;;;;5033205;28;20047;-62
2023/10/03 03:47:54;;;;;;;36.70;15.85;;;;;;;;;;5033094;28;20546;-62
2023/10/03 03:50:21;;;;;;;36.20;17.20;;;;;;;;;;5033367;28;20461;-62
2023/10/03 03:52:49;;;;;;;46.90;16.50;;;;;;;;;;5033392;28;20056;-62
2023/10/03 03:55:17;;;;;;;38.53;15.57;;;;;;;;;;5032831;28;20116;-62
2023/10/03 03:57:43;;;;;;;35.25;15.52;;;;;;;;;;5033290;28;20053;-62
2023/10/03 04:00:12;;;;;;;35.65;15.32;;;;;;;;;;5033557;28;20041;-62
2023/10/03 04:02:41;;;;;;;39.38;15.68;;;;;;;;;;5032939;28;20500;-62
2023/10/03 04:05:08;;;;;;;36.05;15.43;;;;;;;;;;5033149;28;20045;-62
2023/10/03 04:07:38;;;;;;;38.17;15.82;;;;;;;;;;5033127;28;20507;-62
2023/10/03 04:10:10;;;;;;;39.00;14.77;;;;;;;;;;5032778;28;20037;-62
2023/10/03 04:12:41;;;;;;;;;;;;;;;;;;5033625;28;20048;-62
2023/10/03 04:15:10;;;;;;;40.83;15.50;;;;;;;;;;5032791;28;19927;-62
2023/10/03 04:17:36;;;;;;;37.03;15.32;;;;;;;;;;5044495;28;20036;-62
2023/10/03 04:20:30;;;;;;;39.53;14.90;;;;;;;;;;5052824;28;20473;-62
2023/10/03 04:22:52;;;;;;;36.30;15.25;;;;;;;;;;5051362;28;20060;-62
2023/10/03 04:25:21;;;;;;;37.28;15.85;;;;;;;;;;5048504;28;20521;-62
2023/10/03 04:27:48;;;;;;;36.05;15.13;;;;;;;;;;5032877;28;20033;-62
2023/10/03 04:30:15;;;;;;;33.47;15.00;;;;;;;;;;5014885;28;20120;-62
2023/10/03 04:32:42;;;;;;;40.30;15.57;;;;;;;;;;5032179;28;20468;-62
2023/10/03 04:35:13;;;;;;;38.20;15.85;;;;;;;;;;5032561;28;20041;-62
2023/10/03 04:37:42;;;;;;;37.53;15.63;;;;;;;;;;5032559;28;20435;-62
2023/10/03 04:40:13;;;;;;;33.33;13.48;;;;;;;;;;5031999;28;20458;-62
2023/10/03 04:42:41;;;;;;;37.72;14.77;;;;;;;;;;5014830;28;20096;-62
2023/10/03 04:45:13;;;;;;;34.42;14.10;;;;;;;;;;5032450;28;20558;-62
2023/10/03 04:47:41;;;;;;;35.53;14.82;;;;;;;;;;5031742;28;20129;-62
2023/10/03 04:50:07;;;;;;;35.40;13.55;;;;;;;;;;5032229;28;20108;-62
2023/10/03 04:52:34;;;;;;;31.33;14.25;;;;;;;;;;5032269;28;20439;-62
2023/10/03 04:55:00;;;;;;;28.85;13.73;;;;;;;;;;5031756;28;20037;-62
2023/10/03 04:57:27;;;;;;;38.13;15.15;;;;;;;;;;5032051;28;20439;-62
2023/10/03 04:59:56;;;;;;;31.05;13.32;;;;;;;;;;5032000;28;20480;-62
2023/10/03 05:02:22;;;;;;;38.05;14.60;;;;;;;;;;5031679;28;20126;-62
2023/10/03 05:04:48;;;;;;;33.53;14.00;;;;;;;;;;5031864;28;20057;-62
2023/10/03 05:07:15;;;;;;;32.33;13.52;;;;;;;;;;5032058;28;20472;-62
2023/10/03 05:09:41;;;;;;;37.65;14.05;;;;;;;;;;5031238;28;20068;-62
2023/10/03 05:12:07;;;;;;;31.20;13.57;;;;;;;;;;5031903;28;20072;-62
2023/10/03 05:14:34;;;;;;;30.77;13.57;;;;;;;;;;5031690;28;20384;-62
2023/10/03 05:17:01;;;;;;;34.92;14.45;;;;;;;;;;5038328;28;20044;-62
2023/10/03 05:19:31;;;;;;;28.90;12.73;;;;;;;;;;5051736;28;20041;-62
2023/10/03 05:21:58;;;;;;;36.17;13.32;;;;;;;;;;5051722;28;20073;-62
2023/10/03 05:24:24;;;;;;;31.13;12.35;;;;;;;;;;5050994;28;20676;-62
2023/10/03 05:26:51;;;;;;;38.08;13.38;;;;;;;;;;5035249;28;20075;-62
2023/10/03 05:29:18;;;;;;;31.08;12.93;;;;;;;;;;5013954;28;20068;-62
2023/10/03 05:31:45;;;;;;;28.10;12.57;;;;;;;;;;5031102;28;20476;-62
2023/10/03 05:34:11;;;;;;;29.48;12.43;;;;;;;;;;5031608;28;20152;-62
2023/10/03 05:36:38;;;;;;;29.40;12.88;;;;;;;;;;5031377;28;20381;-62
2023/10/03 05:39:06;;;;;;;33.17;12.73;;;;;;;;;;5031054;28;20042;-62
2023/10/03 05:41:33;;;;;;;31.25;12.60;;;;;;;;;;5031239;28;20060;-62
2023/10/03 05:43:59;;;;;;;31.95;12.80;;;;;;;;;;5031129;28;20042;-62
2023/10/03 05:46:25;;;;;;;29.63;12.00;;;;;;;;;;5030785;28;20037;-62
2023/10/03 05:48:51;;;;;;;30.05;11.60;;;;;;;;;;5013366;28;20044;-62
2023/10/03 05:51:20;;;;;;;28.88;12.05;;;;;;;;;;5030284;28;20488;-62
2023/10/03 05:53:46;;;;;;;26.35;11.52;;;;;;;;;;5030852;28;20067;-62
2023/10/03 05:56:13;;;;;;;28.75;10.48;;;;;;;;;;4996719;28;20041;-62
2023/10/03 05:58:39;;;;;;;29.17;10.65;;;;;;;;;;5030885;28;20047;-62
2023/10/03 06:01:05;;;;;;;28.45;10.82;;;;;;;;;;5030684;28;20550;-62
2023/10/03 06:03:31;;;;;;;30.08;10.93;;;;;;;;;;5030756;28;20068;-62
2023/10/03 06:05:57;;;;;;;29.20;10.43;;;;;;;;;;5030785;28;20052;-62
2023/10/03 06:08:23;;;;;;;24.80;9.30;;;;;;;;;;5029942;28;20060;-62
2023/10/03 06:10:49;;;;;;;26.45;9.35;;;;;;;;;;5049424;28;20041;-62
2023/10/03 06:13:15;;;;;;;20.35;8.23;;;;;;;;;;5054394;28;20044;-62
2023/10/03 06:15:42;;;;;;;23.77;7.60;;;;;;;;;;5069826;28;20045;-62
2023/10/03 06:18:08;;;;;;;25.77;7.75;;;;;;;;;;5065134;28;20066;-63
2023/10/03 06:20:34;;;;;;;20.73;7.75;;;;;;;;;;5070544;28;20071;-63
2023/10/03 06:23:01;;;;;;;24.45;7.95;;;;;;;;;;5069929;28;20045;-63
2023/10/03 06:25:28;;;;;;;19.05;7.15;;;;;;;;;;5065530;28;20033;-62
2023/10/03 06:27:54;;;;;;;20.23;6.80;;;;;;;;;;5050586;28;20383;-61
2023/10/03 06:30:20;;;;;;;19.48;7.30;;;;;;;;;;5062435;28;20120;-62
2023/10/03 06:32:46;;;;;;;19.77;6.20;;;;;;;;;;5070748;28;20372;-62
2023/10/03 06:35:12;;;;;;;18.08;6.22;;;;;;;;;;5070195;28;20091;-61
2023/10/03 06:37:38;;;;;;;12.57;5.25;;;;;;;;;;5069930;28;20478;-61
2023/10/03 06:40:07;;;;;;;18.77;5.57;;;;;;;;;;5070524;28;20040;-62
2023/10/03 06:42:36;;;;;;;16.30;5.07;;;;;;;;;;5070147;28;20040;-62
2023/10/03 06:45:03;;;;;;;13.70;4.93;;;;;;;;;;5069504;28;20037;-62
2023/10/03 06:47:29;;;;;;;11.85;4.22;;;;;;;;;;5070496;28;20044;-62
2023/10/03 06:49:56;;;;;;;11.45;4.30;;;;;;;;;;5070253;28;20066;-63
2023/10/03 06:52:22;;;;;;;13.95;4.55;;;;;;;;;;5069555;28;20051;-62
2023/10/03 06:54:48;;;;;;;11.20;4.20;;;;;;;;;;5070068;28;20045;-62
2023/10/03 06:57:14;;;;;;;11.43;4.10;;;;;;;;;;5069449;28;20106;-62
2023/10/03 06:59:40;;;;;;;12.75;3.70;;;;;;;;;;5069814;28;20068;-62
2023/10/03 07:02:08;;;;;;;16.52;4.25;;;;;;;;;;5068100;28;20047;-62
2023/10/03 07:04:34;;;;;;;13.30;4.32;;;;;;;;;;5054406;28;20041;-62
2023/10/03 07:07:01;;;;;;;16.60;4.10;;;;;;;;;;5069763;28;20037;-62
2023/10/03 07:09:28;;;;;;;16.67;4.18;;;;;;;;;;5073495;28;20040;-62
2023/10/03 07:11:54;;;;;;;14.75;4.45;;;;;;;;;;5071982;28;20041;-62
2023/10/03 07:14:20;;;;;;;15.30;3.83;;;;;;;;;;5055364;28;20487;-61
2023/10/03 07:16:48;;;;;;;13.48;4.57;;;;;;;;;;5064475;28;20033;-61
2023/10/03 07:19:15;;;;;;;14.50;3.60;;;;;;;;;;5071434;28;20094;-62
2023/10/03 07:21:41;;;;;;;11.82;4.38;;;;;;;;;;5072182;28;20048;-62
2023/10/03 07:24:07;;;;;;;15.57;4.60;;;;;;;;;;5072841;28;20040;-63
2023/10/03 07:26:33;;;;;;;20.65;4.55;;;;;;;;;;5071486;28;20123;-62
2023/10/03 07:29:01;;;;;;;13.27;3.97;;;;;;;;;;5072117;28;20053;-63
2023/10/03 07:31:28;;;;;;;13.27;3.85;;;;;;;;;;5072276;28;20041;-63
2023/10/03 07:33:54;;;;;;;16.38;4.85;;;;;;;;;;5072282;28;20044;-62
2023/10/03 07:36:20;;;;;;;15.15;4.53;;;;;;;;;;5072115;28;20507;-62
2023/10/03 07:38:46;;;;;;;13.25;4.47;;;;;;;;;;5072755;28;20616;-63
2023/10/03 07:41:13;;;;;;;9.90;4.63;;;;;;;;;;5072338;28;20058;-62
2023/10/03 07:43:47;;;;;;;11.93;4.55;;;;;;;;;;5072212;28;20502;-63
2023/10/03 07:46:19;;;;;;;14.05;4.50;;;;;;;;;;5072396;28;20076;-63
2023/10/03 07:48:45;;;;;;;;;;;;;;;;;;5072824;28;20079;-62
2023/10/03 07:51:17;;;;;;;21.27;5.60;;;;;;;;;;5071371;28;19967;-62
2023/10/03 07:53:43;;;;;;;12.45;4.57;;;;;;;;;;5072290;28;20052;-63
2023/10/03 07:56:30;;;;;;;17.85;4.72;;;;;;;;;;5072299;28;20040;-63
2023/10/03 07:58:57;;;;;;;15.70;4.85;;;;;;;;;;5071921;28;20045;-63
2023/10/03 08:01:26;;;;;;;17.35;5.40;;;;;;;;;;5034103;28;20514;-63
2023/10/03 08:03:53;;;;;;;12.63;4.90;;;;;;;;;;5052407;28;20044;-63
2023/10/03 08:06:22;;;;;;;15.88;5.55;;;;;;;;;;5061442;28;20044;-63
2023/10/03 08:08:59;;;;;;;16.20;5.40;;;;;;;;;;5052118;28;20037;-63
2023/10/03 08:11:31;;;;;;;15.25;5.40;;;;;;;;;;5059319;28;20047;-64
2023/10/03 08:13:59;;;;;;;12.80;5.20;;;;;;;;;;5052323;28;20641;-65
2023/10/03 08:16:27;;;;;;;15.57;5.50;;;;;;;;;;5060131;28;20041;-63
2023/10/03 08:19:01;;;;;;;13.38;4.00;;;;;;;;;;5064997;28;20044;-62
2023/10/03 08:21:28;;;;;;;13.77;3.88;;;;;;;;;;5063163;28;20072;-62
2023/10/03 08:23:55;;;;;;;10.50;3.95;;;;;;;;;;5057638;28;20041;-64
2023/10/03 08:26:21;;;;;;;14.35;3.80;;;;;;;;;;5054900;28;20040;-63
2023/10/03 08:28:59;;;;;;;13.40;3.83;;;;;;;;;;5069468;28;20049;-63
2023/10/03 08:31:28;;;;;;;12.57;3.03;;;;;;;;;;5076263;28;20037;-63
2023/10/03 08:33:55;;;;;;;12.25;3.10;;;;;;;;;;5057262;28;20045;-63
2023/10/03 08:36:29;;;;;;;8.75;2.50;;;;;;;;;;5064719;28;20068;-63
2023/10/03 08:39:04;;;;;;;6.55;2.10;;;;;;;;;;5076180;28;20085;-64
2023/10/03 08:41:54;;;;;;;9.70;2.90;;;;;;;;;;5055009;28;20049;-64
2023/10/03 08:44:23;;;;;;;10.23;2.30;;;;;;;;;;5054851;28;20780;-62
2023/10/03 08:46:50;;;;;;;8.93;2.80;;;;;;;;;;5052999;28;20033;-61
2023/10/03 08:49:18;;;;;;;9.90;2.17;;;;;;;;;;5069538;28;20051;-64
2023/10/03 08:51:48;;;;;;;10.43;2.20;;;;;;;;;;5057914;28;20126;-64
2023/10/03 08:54:14;;;;;;;7.65;2.25;;;;;;;;;;5058912;28;20048;-64
2023/10/03 08:56:41;;;;;;;6.30;1.80;;;;;;;;;;5055906;28;20045;-63
2023/10/03 08:59:15;;;;;;;9.85;1.50;;;;;;;;;;5061845;28;20045;-63
2023/10/03 09:01:48;;;;;;;11.18;1.85;;;;;;;;;;5047402;28;20053;-64
2023/10/03 09:04:16;;;;;;;6.13;1.48;;;;;;;;;;5060077;28;20047;-64
2023/10/03 09:06:43;;;;;;;5.72;1.63;;;;;;;;;;5052945;28;20033;-63
2023/10/03 09:09:11;;;;;;;8.20;1.60;;;;;;;;;;5062541;28;20072;-63
2023/10/03 09:11:37;;;;;;;7.47;1.67;;;;;;;;;;5058491;28;20041;-64
2023/10/03 09:14:07;;;;;;;6.63;1.23;;;;;;;;;;5052189;28;20137;-63
2023/10/03 09:16:40;;;;;;;7.78;1.25;;;;;;;;;;5062695;28;20044;-62
2023/10/03 09:19:12;;;;;;;7.90;1.30;;;;;;;;;;5048039;28;20045;-62
2023/10/03 09:21:38;;;;;;;4.22;0.90;;;;;;;;;;5054947;28;20134;-62
2023/10/03 09:24:17;;;;;;;6.30;0.95;;;;;;;;;;5062531;28;20040;-63
2023/10/03 09:26:47;;;;;;;1.98;0.70;;;;;;;;;;5063175;28;20037;-63
2023/10/03 09:29:29;;;;;;;4.38;0.80;;;;;;;;;;5073611;28;20036;-63
2023/10/03 09:31:57;;;;;;;3.42;0.90;;;;;;;;;;5034612;28;20045;-63
2023/10/03 09:34:30;;;;;;;5.35;0.90;;;;;;;;;;5059261;28;20045;-62
2023/10/03 09:37:02;;;;;;;5.13;0.73;;;;;;;;;;5053491;28;20124;-63
2023/10/03 09:39:29;;;;;;;4.63;0.90;;;;;;;;;;5055100;28;20084;-63
2023/10/03 09:41:57;;;;;;;4.38;0.73;;;;;;;;;;5056683;28;20422;-65
2023/10/03 09:44:30;;;;;;;6.50;0.80;;;;;;;;;;5060514;28;20116;-62
2023/10/03 09:47:00;;;;;;;4.80;0.93;;;;;;;;;;5042077;28;20365;-63
2023/10/03 09:49:36;;;;;;;5.82;0.63;;;;;;;;;;5039960;28;20587;-63
2023/10/03 09:52:04;;;;;;;3.35;0.60;;;;;;;;;;5026055;28;20064;-63
2023/10/03 09:54:30;;;;;;;8.95;0.90;;;;;;;;;;5061310;28;20462;-63
2023/10/03 09:56:57;;;;;;;3.35;1.15;;;;;;;;;;5053667;28;20200;-64
2023/10/03 09:59:32;;;;;;;2.38;0.60;;;;;;;;;;5051543;28;20089;-64
2023/10/03 10:01:59;;;;;;;6.68;0.70;;;;;;;;;;5053508;28;20051;-64
2023/10/03 10:04:26;;;;;;;1.98;0.50;;;;;;;;;;5052095;28;20067;-64
2023/10/03 10:06:55;;;;;;;3.17;0.80;;;;;;;;;;5045327;28;20042;-64
2023/10/03 10:09:35;;;;;;;5.70;0.60;;;;;;;;;;5041974;28;20379;-64
2023/10/03 10:12:19;;;;;;;4.55;0.70;;;;;;;;;;5074628;28;20028;-65
2023/10/03 10:15:00;;;;;;;3.65;1.08;;;;;;;;;;5042248;28;20095;-63
2023/10/03 10:17:49;;;;;;;3.90;0.70;;;;;;;;;;5048559;28;20041;-63
2023/10/03 10:20:38;;;;;;;1.92;0.50;;;;;;;;;;5033836;28;20053;-63
2023/10/03 10:23:13;;;;;;;6.10;0.57;;;;;;;;;;5038038;28;20049;-62
2023/10/03 10:25:43;;;;;;;4.57;1.08;;;;;;;;;;5051796;28;20537;-62
2023/10/03 10:28:09;;;;;;;3.15;0.60;;;;;;;;;;5047688;28;20060;-64
2023/10/03 10:30:44;;;;;;;4.78;0.70;;;;;;;;;;5034430;28;20044;-65
2023/10/03 10:33:17;;;;;;;3.25;0.70;;;;;;;;;;5055283;28;20076;-65
2023/10/03 10:36:03;;;;;;;4.72;0.52;;;;;;;;;;5069959;28;20100;-65
2023/10/03 10:38:33;;;;;;;5.93;0.77;;;;;;;;;;5088720;28;20040;-65
2023/10/03 10:41:17;;;;;;;3.13;0.65;;;;;;;;;;5090252;28;20078;-65
2023/10/03 10:44:05;;;;;;;2.90;0.75;;;;;;;;;;5070821;28;20037;-65
2023/10/03 10:46:32;;;;;;;3.03;0.60;;;;;;;;;;5059781;28;20513;-65
2023/10/03 10:48:58;;;;;;;3.20;0.60;;;;;;;;;;5054412;28;20064;-65
2023/10/03 10:51:25;;;;;;;2.83;0.60;;;;;;;;;;5063102;28;20053;-65
2023/10/03 10:53:53;;;;;;;5.97;0.80;;;;;;;;;;5069017;28;20071;-65
2023/10/03 10:56:22;;;;;;;3.85;1.15;;;;;;;;;;5070079;28;20063;-65
2023/10/03 10:58:51;;;;;;;2.47;0.80;;;;;;;;;;5061594;28;20048;-65
2023/10/03 11:01:19;;;;;;;4.78;1.10;;;;;;;;;;5068519;28;20052;-65
2023/10/03 11:03:46;;;;;;;6.40;0.90;;;;;;;;;;5063658;28;20049;-65
2023/10/03 11:06:17;;;;;;;5.55;0.88;;;;;;;;;;5046898;28;20062;-65
2023/10/03 11:08:47;;;;;;;3.90;0.93;;;;;;;;;;5034594;28;20049;-64
2023/10/03 11:11:13;;;;;;;6.65;1.08;;;;;;;;;;5078588;28;20079;-64
2023/10/03 11:13:50;;;;;;;7.45;1.10;;;;;;;;;;5074798;28;20043;-65
2023/10/03 11:16:26;;;;;;;5.10;1.20;;;;;;;;;;5069787;28;20067;-65
2023/10/03 11:18:54;;;;;;;6.53;1.10;;;;;;;;;;5069078;28;20488;-65
2023/10/03 11:21:25;;;;;;;7.93;1.40;;;;;;;;;;5050988;28;20045;-65
2023/10/03 11:24:09;;;;;;;6.85;1.10;;;;;;;;;;5051280;28;20041;-64
2023/10/03 11:26:42;;;;;;;6.43;1.33;;;;;;;;;;5063127;28;20044;-65
2023/10/03 11:29:08;;;;;;;9.07;1.38;;;;;;;;;;5067845;28;20037;-64
2023/10/03 11:31:39;;;;;;;5.72;1.10;;;;;;;;;;5076278;28;20096;-64
2023/10/03 11:34:05;;;;;;;10.32;1.42;;;;;;;;;;5067509;28;20071;-63
2023/10/03 11:36:44;;;;;;;8.30;1.52;;;;;;;;;;5081193;28;20054;-63
2023/10/03 11:39:11;;;;;;;7.22;1.20;;;;;;;;;;5070524;28;20045;-63
2023/10/03 11:41:38;;;;;;;6.68;1.20;;;;;;;;;;5059195;28;20041;-63
2023/10/03 11:44:06;;;;;;;3.72;0.82;;;;;;;;;;5060620;28;20056;-63
2023/10/03 11:46:39;;;;;;;3.03;0.70;;;;;;;;;;5061877;28;20468;-64
2023/10/03 11:49:08;;;;;;;4.07;0.98;;;;;;;;;;5046727;28;20086;-64
2023/10/03 11:51:38;;;;;;;4.38;1.00;;;;;;;;;;5056108;28;20049;-64
2023/10/03 11:54:08;;;;;;;5.20;1.30;;;;;;;;;;5059553;28;20523;-65
2023/10/03 11:56:43;;;;;;;7.43;1.33;;;;;;;;;;5055205;28;20044;-64
2023/10/03 11:59:14;;;;;;;2.22;1.10;;;;;;;;;;5053212;28;20040;-64
2023/10/03 12:01:40;;;;;;;4.60;1.13;;;;;;;;;;5049250;28;20395;-64
2023/10/03 12:04:06;;;;;;;6.03;1.60;;;;;;;;;;5049591;28;20033;-64
2023/10/03 12:06:33;;;;;;;4.53;1.40;;;;;;;;;;5062299;28;20040;-63
2023/10/03 12:09:00;;;;;;;6.30;1.65;;;;;;;;;;5063346;28;20036;-64
2023/10/03 12:11:26;;;;;;;6.95;1.80;;;;;;;;;;5051488;28;20108;-64
2023/10/03 12:13:54;;;;;;;8.30;1.83;;;;;;;;;;5064770;28;20051;-63
2023/10/03 12:16:20;;;;;;;9.02;2.28;;;;;;;;;;5046946;28;20041;-64
2023/10/03 12:18:47;;;;;;;6.38;2.17;;;;;;;;;;5044467;28;20560;-63
2023/10/03 12:21:13;;;;;;;8.32;2.00;;;;;;;;;;5043150;28;20046;-63
2023/10/03 12:23:40;;;;;;;8.70;2.15;;;;;;;;;;5049536;28;20041;-62
2023/10/03 12:26:06;;;;;;;8.63;1.90;;;;;;;;;;5043775;28;20037;-63
2023/10/03 12:28:32;;;;;;;6.88;2.03;;;;;;;;;;5050109;28;20069;-63
2023/10/03 12:30:58;;;;;;;8.63;2.30;;;;;;;;;;5042884;28;20116;-63
2023/10/03 12:33:24;;;;;;;8.27;2.53;;;;;;;;;;5044318;28;20073;-64
2023/10/03 12:35:52;;;;;;;7.75;1.98;;;;;;;;;;5040891;28;20041;-64
2023/10/03 12:38:19;;;;;;;7.20;2.05;;;;;;;;;;5048241;28;20068;-63
2023/10/03 12:40:47;;;;;;;8.27;2.40;;;;;;;;;;5042909;28;20132;-64
2023/10/03 12:43:13;;;;;;;4.75;1.90;;;;;;;;;;5055841;28;20044;-63
2023/10/03 12:45:39;;;;;;;3.80;1.67;;;;;;;;;;5052027;28;20568;-63
2023/10/03 12:48:05;;;;;;;6.40;2.28;;;;;;;;;;5056113;28;20590;-63
2023/10/03 12:50:31;;;;;;;8.48;2.10;;;;;;;;;;5042648;28;20056;-62
2023/10/03 12:53:01;;;;;;;8.88;2.20;;;;;;;;;;5071375;28;20093;-63
2023/10/03 12:55:29;;;;;;;6.18;2.30;;;;;;;;;;5053079;28;20041;-64
2023/10/03 12:57:58;;;;;;;7.25;2.22;;;;;;;;;;5071609;28;20135;-63
2023/10/03 13:00:25;;;;;;;5.97;2.17;;;;;;;;;;5070999;28;20443;-63
2023/10/03 13:02:51;;;;;;;7.35;1.88;;;;;;;;;;5070832;28;20039;-64
2023/10/03 13:05:18;;;;;;;7.63;2.10;;;;;;;;;;5071469;28;20492;-63
2023/10/03 13:07:47;;;;;;;9.68;2.30;;;;;;;;;;5071098;28;20418;-63
2023/10/03 13:10:14;;;;;;;7.40;1.90;;;;;;;;;;5053314;28;20044;-62
2023/10/03 13:12:43;;;;;;;5.63;1.70;;;;;;;;;;5071320;28;20123;-63
2023/10/03 13:15:17;;;;;;;7.00;1.90;;;;;;;;;;5070970;28;20048;-64
2023/10/03 13:17:44;;;;;;;7.80;1.95;;;;;;;;;;5057699;28;20059;-64
2023/10/03 13:20:14;;;;;;;6.38;2.10;;;;;;;;;;5066768;28;20125;-65
2023/10/03 13:22:45;;;;;;;7.65;2.00;;;;;;;;;;5071079;28;20116;-63
2023/10/03 13:25:13;;;;;;;9.70;2.22;;;;;;;;;;5067952;28;20049;-62
2023/10/03 13:27:40;;;;;;;8.57;2.40;;;;;;;;;;5062076;28;20514;-63
2023/10/03 13:30:10;;;;;;;12.15;2.10;;;;;;;;;;5071309;28;20047;-64
2023/10/03 13:32:42;;;;;;;7.03;1.80;;;;;;;;;;5053393;28;20071;-63
2023/10/03 13:35:08;;;;;;;12.57;2.90;;;;;;;;;;5045328;28;20598;-63
2023/10/03 13:37:35;;;;;;;8.50;1.90;;;;;;;;;;5050966;28;20040;-63
2023/10/03 13:40:05;;;;;;;11.43;2.15;;;;;;;;;;5050068;28;20041;-63
2023/10/03 13:42:31;;;;;;;7.88;1.90;;;;;;;;;;5050260;28;20041;-63
2023/10/03 13:44:57;;;;;;;9.45;2.15;;;;;;;;;;5050901;28;20395;-62
2023/10/03 13:47:23;;;;;;;8.43;2.25;;;;;;;;;;5044289;28;20523;-63
2023/10/03 13:49:49;;;;;;;11.40;2.03;;;;;;;;;;5012893;28;20048;-63
2023/10/03 13:52:19;;;;;;;7.07;1.92;;;;;;;;;;5061461;28;20135;-64
2023/10/03 13:54:45;;;;;;;8.40;1.98;;;;;;;;;;5069922;28;20060;-64
2023/10/03 13:57:16;;;;;;;9.75;2.03;;;;;;;;;;5070372;28;20051;-64
2023/10/03 13:59:44;;;;;;;11.35;1.92;;;;;;;;;;5070132;28;20075;-63
2023/10/03 14:02:10;;;;;;;10.98;2.00;;;;;;;;;;5069956;28;20044;-63
2023/10/03 14:04:37;;;;;;;9.85;2.42;;;;;;;;;;5070362;28;20140;-63
2023/10/03 14:07:04;;;;;;;6.75;2.03;;;;;;;;;;5070686;28;20112;-63
2023/10/03 14:09:32;;;;;;;11.95;2.22;;;;;;;;;;5070554;28;20072;-63
2023/10/03 14:12:04;;;;;;;7.30;1.80;;;;;;;;;;5074964;28;20548;-63
2023/10/03 14:14:32;;;;;;;7.38;1.98;;;;;;;;;;5077137;28;20037;-63
2023/10/03 14:17:00;;;;;;;6.55;1.63;;;;;;;;;;5070119;28;20079;-62
2023/10/03 14:19:31;;;;;;;6.55;1.70;;;;;;;;;;5065145;28;20119;-63
2023/10/03 14:21:59;;;;;;;11.07;1.73;;;;;;;;;;5077197;28;20086;-63
2023/10/03 14:24:26;;;;;;;6.97;1.40;;;;;;;;;;5076812;28;20678;-63
2023/10/03 14:26:52;;;;;;;6.97;1.52;;;;;;;;;;5045700;28;20044;-62
2023/10/03 14:29:20;;;;;;;5.72;1.23;;;;;;;;;;5077371;28;20090;-63
2023/10/03 14:31:46;;;;;;;5.80;1.60;;;;;;;;;;5077057;28;20037;-63
2023/10/03 14:34:14;;;;;;;8.82;1.67;;;;;;;;;;5077420;28;20040;-63
2023/10/03 14:36:40;;;;;;;5.38;1.77;;;;;;;;;;5077331;28;20127;-63
2023/10/03 14:39:12;;;;;;;6.55;1.60;;;;;;;;;;5077158;28;20536;-63
2023/10/03 14:41:42;;;;;;;8.38;2.05;;;;;;;;;;5077506;28;20374;-63
2023/10/03 14:44:10;;;;;;;5.38;1.52;;;;;;;;;;5077451;28;20040;-63